Startex, South Carolina
Current Conditions -  °F | °C
As of 1:53 AM on Sunday 21 Dec 2014 (Local Time) from KGSP Reporting Station
Overcast Overcast  
Wind Chill: 42°   Ceiling: 1500
Heat Index: 42°   Visibility: 7mi
Dew Point: 39°   Wind: 3mph
Humidity: 89%   Direction: 50°NE
Pressure: 30.22"   Gusts: NA
Location:  34.93°N, 82.1°W
Report Text: KGSP 210653Z AUTO 05003KT 7SM OVC015 06/04 A3022 RMK AO2 SLP235 T00560039
Loading
Personal Weather Stations






























Interactive Weather Map New forecast layout! Learn more

10-Day Weather Forecast

Advertisements
Track Severe Weather on mobile